createdAt,value
2018-01-18T00:00:09.166Z,1.22
2018-01-18T00:01:09.163Z,1.22
2018-01-18T00:02:09.149Z,1.29
2018-01-18T00:03:09.142Z,1.29
2018-01-18T00:04:09.135Z,1.29
2018-01-18T00:05:09.128Z,1.28
2018-01-18T00:06:09.123Z,1.25
2018-01-18T00:07:09.112Z,1.32
2018-01-18T00:08:09.105Z,1.25
2018-01-18T00:09:09.097Z,1.21
2018-01-18T00:10:09.090Z,1.22
2018-01-18T00:11:09.085Z,1.29
2018-01-18T00:12:09.079Z,1.26
2018-01-18T00:13:09.066Z,1.16
2018-01-18T00:14:09.060Z,1.32
2018-01-18T00:15:09.053Z,1.32
2018-01-18T00:16:09.046Z,1.32
2018-01-18T00:17:09.037Z,1.29
2018-01-18T00:18:09.033Z,1.29
2018-01-18T00:19:09.023Z,1.33
2018-01-18T00:20:09.015Z,1.29
2018-01-18T00:21:09.017Z,1.29
2018-01-18T00:22:09.001Z,1.24
2018-01-18T00:23:08.996Z,1.37
2018-01-18T00:24:08.985Z,1.32
2018-01-18T00:25:08.978Z,1.24
2018-01-18T00:26:08.973Z,1.25
2018-01-18T00:27:08.963Z,1.18
2018-01-18T00:28:08.956Z,1.22
2018-01-18T00:29:08.947Z,1.21
2018-01-18T00:30:08.941Z,1.16
2018-01-18T00:31:08.934Z,1.10
2018-01-18T00:32:08.947Z,1.19
2018-01-18T00:33:08.918Z,1.14
2018-01-18T00:34:08.912Z,1.19
2018-01-18T00:35:08.903Z,1.25
2018-01-18T00:36:08.898Z,1.22
2018-01-18T00:37:08.887Z,1.16
2018-01-18T00:38:08.880Z,1.19
2018-01-18T00:39:08.874Z,1.16
2018-01-18T00:40:08.864Z,1.19
2018-01-18T00:41:08.863Z,1.07
2018-01-18T00:42:08.851Z,1.12
2018-01-18T00:43:08.852Z,1.15
2018-01-18T00:44:08.834Z,1.22
2018-01-18T00:45:08.828Z,1.25
2018-01-18T00:46:08.817Z,1.22
2018-01-18T00:47:08.812Z,1.26
2018-01-18T00:48:08.804Z,1.21
2018-01-18T00:49:08.795Z,1.19
2018-01-18T00:50:08.788Z,1.18
2018-01-18T00:51:08.781Z,1.07
2018-01-18T00:52:08.773Z,1.04
2018-01-18T00:53:08.765Z,1.12
2018-01-18T00:54:08.757Z,1.16
2018-01-18T00:55:08.749Z,1.18
2018-01-18T00:56:08.746Z,1.24
2018-01-18T00:57:08.734Z,1.22
2018-01-18T00:58:08.727Z,1.22
2018-01-18T00:59:08.720Z,1.22
2018-01-18T01:00:08.713Z,1.24
2018-01-18T01:01:08.704Z,1.21
2018-01-18T01:02:08.698Z,1.24
2018-01-18T01:03:08.689Z,1.19
2018-01-18T01:04:08.682Z,1.21
2018-01-18T01:05:08.682Z,1.24
2018-01-18T01:06:08.666Z,1.24
2018-01-18T01:07:08.660Z,1.21
2018-01-18T01:08:08.653Z,1.18
2018-01-18T01:09:08.645Z,1.16
2018-01-18T01:10:08.638Z,1.19
2018-01-18T01:11:08.629Z,1.18
2018-01-18T01:12:08.624Z,1.21
2018-01-18T01:13:08.614Z,1.18
2018-01-18T01:14:08.607Z,1.10
2018-01-18T01:15:08.600Z,1.04
2018-01-18T01:16:08.593Z,1.16
2018-01-18T01:17:08.584Z,1.28
2018-01-18T01:18:08.579Z,1.14
2018-01-18T01:19:08.570Z,1.06
2018-01-18T01:20:08.563Z,1.14
2018-01-18T01:21:08.553Z,1.14
2018-01-18T01:22:08.550Z,1.07
2018-01-18T01:23:08.540Z,1.14
2018-01-18T01:24:08.533Z,1.21
2018-01-18T01:25:08.526Z,1.21
2018-01-18T01:26:08.517Z,1.24
2018-01-18T01:27:08.511Z,1.34
2018-01-18T01:28:08.503Z,1.29
2018-01-18T01:29:08.495Z,1.32
2018-01-18T01:30:08.505Z,1.32
2018-01-18T01:31:08.481Z,1.34
2018-01-18T01:32:08.473Z,1.33
2018-01-18T01:33:08.466Z,1.33
2018-01-18T01:34:08.460Z,1.34
2018-01-18T01:35:08.456Z,1.24
2018-01-18T01:36:08.443Z,1.29
2018-01-18T01:37:08.444Z,1.32
2018-01-18T01:38:08.428Z,1.26
2018-01-18T01:39:08.421Z,1.29
2018-01-18T01:40:08.415Z,1.29
2018-01-18T01:41:08.406Z,1.39
2018-01-18T01:42:08.399Z,1.28
2018-01-18T01:43:08.392Z,1.33
2018-01-18T01:44:08.382Z,1.32
2018-01-18T01:45:08.373Z,1.29
2018-01-18T01:46:08.367Z,1.29
2018-01-18T01:47:08.361Z,1.28
2018-01-18T01:48:08.354Z,1.37
2018-01-18T01:49:08.345Z,1.37
2018-01-18T01:50:08.338Z,1.19
2018-01-18T01:51:08.335Z,1.33
2018-01-18T01:52:08.338Z,1.29
2018-01-18T01:53:08.331Z,1.33
2018-01-18T01:54:08.312Z,1.32
2018-01-18T01:55:08.301Z,1.29
2018-01-18T01:56:08.292Z,1.26
2018-01-18T01:57:08.286Z,1.33
2018-01-18T01:58:08.280Z,1.24
2018-01-18T01:59:08.271Z,1.24
2018-01-18T02:00:08.262Z,1.22
2018-01-18T02:01:08.256Z,1.36
2018-01-18T02:02:08.249Z,1.25
2018-01-18T02:03:08.252Z,1.22
2018-01-18T02:04:08.234Z,1.26
2018-01-18T02:05:08.239Z,1.32
2018-01-18T02:06:08.218Z,1.16
2018-01-18T02:07:08.211Z,1.25
2018-01-18T02:08:08.205Z,1.36
2018-01-18T02:09:08.198Z,1.24
2018-01-18T02:10:08.191Z,1.36
2018-01-18T02:11:08.184Z,1.25
2018-01-18T02:12:08.175Z,1.21
2018-01-18T02:13:08.181Z,1.22
2018-01-18T02:14:08.159Z,1.28
2018-01-18T02:15:08.158Z,1.34
2018-01-18T02:16:08.150Z,1.34
2018-01-18T02:17:08.138Z,1.22
2018-01-18T02:18:08.130Z,1.26
2018-01-18T02:19:08.122Z,1.18
2018-01-18T02:20:08.116Z,1.19
2018-01-18T02:21:08.113Z,1.21
2018-01-18T02:22:08.111Z,1.21
2018-01-18T02:23:08.097Z,1.16
2018-01-18T02:24:08.085Z,1.18
2018-01-18T02:25:08.077Z,1.22
2018-01-18T02:26:08.071Z,1.15
2018-01-18T02:27:08.070Z,1.04
2018-01-18T02:28:08.057Z,1.14
2018-01-18T02:29:08.078Z,1.10
2018-01-18T02:30:08.040Z,1.07
2018-01-18T02:31:08.032Z,1.15
2018-01-18T02:32:08.025Z,1.15
2018-01-18T02:33:08.020Z,1.10
2018-01-18T02:34:08.027Z,1.19
2018-01-18T02:35:08.005Z,1.19
2018-01-18T02:36:07.997Z,1.25
2018-01-18T02:37:07.988Z,1.21
2018-01-18T02:38:07.983Z,1.08
2018-01-18T02:39:07.972Z,1.14
2018-01-18T02:40:07.966Z,1.15
2018-01-18T02:41:07.959Z,1.14
2018-01-18T02:42:07.949Z,1.08
2018-01-18T02:43:07.943Z,1.10
2018-01-18T02:44:07.936Z,1.12
2018-01-18T02:45:07.928Z,1.10
2018-01-18T02:46:07.919Z,1.18
2018-01-18T02:47:07.913Z,1.07
2018-01-18T02:48:07.904Z,1.19
2018-01-18T02:49:07.899Z,1.12
2018-01-18T02:50:07.893Z,1.08
2018-01-18T02:51:07.882Z,1.10
2018-01-18T02:52:07.876Z,1.07
2018-01-18T02:53:07.866Z,1.18
2018-01-18T02:54:07.865Z,1.22
2018-01-18T02:55:07.859Z,1.21
2018-01-18T02:56:07.847Z,1.22
2018-01-18T02:57:07.837Z,1.25
2018-01-18T02:58:07.832Z,1.29
2018-01-18T02:59:07.824Z,1.32
2018-01-18T03:00:07.818Z,1.29
2018-01-18T03:01:07.807Z,1.29
2018-01-18T03:02:07.801Z,1.37
2018-01-18T03:03:07.794Z,1.39
2018-01-18T03:04:07.786Z,1.39
2018-01-18T03:05:07.778Z,1.43
2018-01-18T03:06:07.773Z,1.32
2018-01-18T03:07:07.763Z,1.29
2018-01-18T03:08:07.756Z,1.28
2018-01-18T03:09:07.747Z,1.37
2018-01-18T03:10:07.744Z,1.42
2018-01-18T03:11:07.730Z,1.34
2018-01-18T03:12:07.734Z,1.34
2018-01-18T03:13:07.725Z,1.36
2018-01-18T03:14:07.724Z,1.39
2018-01-18T03:15:07.704Z,1.36
2018-01-18T03:16:07.698Z,1.39
2018-01-18T03:17:07.689Z,1.36
2018-01-18T03:18:07.684Z,1.34
2018-01-18T03:19:07.677Z,1.39
2018-01-18T03:20:07.668Z,1.39
2018-01-18T03:21:07.659Z,1.42
2018-01-18T03:22:07.654Z,1.47
2018-01-18T03:23:07.646Z,1.42
2018-01-18T03:24:07.641Z,1.40
2018-01-18T03:25:07.630Z,1.34
2018-01-18T03:26:07.624Z,1.40
2018-01-18T03:27:07.618Z,1.36
2018-01-18T03:28:07.609Z,1.39
2018-01-18T03:29:07.601Z,1.34
2018-01-18T03:30:07.594Z,1.39
2018-01-18T03:31:07.587Z,1.43
2018-01-18T03:32:07.582Z,1.33
2018-01-18T03:33:07.572Z,1.33
2018-01-18T03:34:07.565Z,1.32
2018-01-18T03:35:07.556Z,1.33
2018-01-18T03:36:07.562Z,1.36
2018-01-18T03:37:07.543Z,1.29
2018-01-18T03:38:07.535Z,1.36
2018-01-18T03:39:07.534Z,1.32
2018-01-18T03:40:07.523Z,1.36
2018-01-18T03:41:07.514Z,1.37
2018-01-18T03:42:07.506Z,1.42
2018-01-18T03:43:07.502Z,1.37
2018-01-18T03:44:07.491Z,1.36
2018-01-18T03:45:07.486Z,1.33
2018-01-18T03:46:07.478Z,1.36
2018-01-18T03:47:07.472Z,1.34
2018-01-18T03:48:07.464Z,1.29
2018-01-18T03:49:07.456Z,1.29
2018-01-18T03:50:07.449Z,1.40
2018-01-18T03:51:07.441Z,1.34
2018-01-18T03:52:07.435Z,1.33
2018-01-18T03:53:07.428Z,1.33
2018-01-18T03:54:07.421Z,1.33
2018-01-18T03:55:07.413Z,1.33
2018-01-18T03:56:07.415Z,1.28
2018-01-18T03:57:07.398Z,1.29
2018-01-18T03:58:07.394Z,1.33
2018-01-18T03:59:07.384Z,1.37
2018-01-18T04:00:07.380Z,1.39
2018-01-18T04:01:07.370Z,1.34
2018-01-18T04:02:07.361Z,1.36
2018-01-18T04:03:07.357Z,1.39
2018-01-18T04:04:07.347Z,1.33
2018-01-18T04:05:07.338Z,1.34
2018-01-18T04:06:07.333Z,1.37
2018-01-18T04:07:07.325Z,1.36
2018-01-18T04:08:07.319Z,1.36
2018-01-18T04:09:07.314Z,1.34
2018-01-18T04:10:07.304Z,1.36
2018-01-18T04:11:07.295Z,1.36
2018-01-18T04:12:07.290Z,1.39
2018-01-18T04:13:07.282Z,1.34
2018-01-18T04:14:07.276Z,1.39
2018-01-18T04:15:07.268Z,1.39
2018-01-18T04:16:07.258Z,1.37
2018-01-18T04:17:07.252Z,1.36
2018-01-18T04:18:07.247Z,1.37
2018-01-18T04:19:07.238Z,1.39
2018-01-18T04:20:15.925Z,1.28
2018-01-18T04:22:01.641Z,1.33
2018-01-18T04:23:01.574Z,1.34
2018-01-18T04:24:55.998Z,1.32
2018-01-18T04:25:55.915Z,1.32
2018-01-18T04:27:50.446Z,1.36
2018-01-18T04:28:50.416Z,1.32
2018-01-18T04:30:44.827Z,1.29
2018-01-18T04:31:44.766Z,1.29
2018-01-18T04:33:39.127Z,1.29
2018-01-18T04:34:39.166Z,1.34
2018-01-18T04:36:33.477Z,1.40
2018-01-18T04:37:33.454Z,1.33
2018-01-18T04:39:27.857Z,1.32
2018-01-18T04:40:27.810Z,1.32
2018-01-18T04:42:22.235Z,1.28
2018-01-18T04:43:22.154Z,1.28
2018-01-18T04:45:16.534Z,1.32
2018-01-18T04:46:16.507Z,1.34
2018-01-18T04:48:10.929Z,1.33
2018-01-18T04:49:10.843Z,1.36
2018-01-18T04:51:05.208Z,1.32
2018-01-18T04:52:05.188Z,1.28
2018-01-18T04:53:59.585Z,1.26
2018-01-18T04:54:59.528Z,1.37
2018-01-18T04:56:53.942Z,1.37
2018-01-18T04:57:53.875Z,1.43
2018-01-18T04:59:48.276Z,1.44
2018-01-18T05:00:48.219Z,1.44
2018-01-18T05:02:42.593Z,1.43
2018-01-18T05:03:42.568Z,1.40
2018-01-18T05:05:36.922Z,1.43
2018-01-18T05:06:36.911Z,1.43
2018-01-18T05:08:31.315Z,1.52
2018-01-18T05:09:31.258Z,1.47
2018-01-18T05:11:25.718Z,1.52
2018-01-18T05:12:25.596Z,1.39
2018-01-18T05:14:19.962Z,1.40
2018-01-18T05:15:19.940Z,1.40
2018-01-18T05:17:14.356Z,1.39
2018-01-18T05:18:14.289Z,1.39
2018-01-18T05:20:08.701Z,1.36
2018-01-18T05:21:08.635Z,1.34
2018-01-18T05:23:03.045Z,1.37
2018-01-18T05:24:03.004Z,1.34
2018-01-18T05:25:58.325Z,1.32
2018-01-18T05:26:58.359Z,1.34
2018-01-18T05:28:52.688Z,1.36
2018-01-18T05:29:52.675Z,1.34
2018-01-18T05:31:47.027Z,1.33
2018-01-18T05:32:47.000Z,1.36
2018-01-18T05:34:41.402Z,1.33
2018-01-18T05:35:41.349Z,1.32
2018-01-18T05:37:35.762Z,1.32
2018-01-18T05:38:35.695Z,1.33
2018-01-18T05:40:30.119Z,1.33
2018-01-18T05:41:30.031Z,1.40
2018-01-18T05:43:24.442Z,1.32
2018-01-18T05:44:24.405Z,1.28
2018-01-18T05:46:18.746Z,1.39
2018-01-18T05:47:18.733Z,1.39
2018-01-18T05:49:13.112Z,1.46
2018-01-18T05:50:13.080Z,1.50
2018-01-18T05:52:07.432Z,1.55
2018-01-18T05:53:07.419Z,1.46
2018-01-18T05:55:01.806Z,1.54
2018-01-18T05:56:01.824Z,1.57
2018-01-18T05:58:16.492Z,1.46
2018-01-18T05:58:57.626Z,1.54
2018-01-18T05:59:57.210Z,1.51
2018-01-18T06:00:57.316Z,1.57
2018-01-18T06:01:57.134Z,1.52
2018-01-18T06:02:57.124Z,1.43
2018-01-18T06:03:57.118Z,1.42
2018-01-18T06:09:54.934Z,1.54
2018-01-18T06:10:54.559Z,1.44
2018-01-18T06:12:49.016Z,1.47
2018-01-18T06:13:49.029Z,1.46
2018-01-18T06:14:49.090Z,1.47
2018-01-18T06:15:48.920Z,1.51
2018-01-18T06:16:48.864Z,1.58
2018-01-18T06:17:48.857Z,1.57
2018-01-18T06:18:48.850Z,1.54
2018-01-18T06:19:48.842Z,1.52
2018-01-18T06:20:48.834Z,1.47
2018-01-18T06:21:48.827Z,1.54
2018-01-18T06:22:48.821Z,1.57
2018-01-18T06:23:48.811Z,1.57
2018-01-18T06:24:48.808Z,1.54
2018-01-18T06:25:48.800Z,1.52
2018-01-18T06:26:48.797Z,1.47
2018-01-18T06:27:48.784Z,1.51
2018-01-18T06:28:48.778Z,1.51
2018-01-18T06:29:48.773Z,1.52
2018-01-18T06:30:48.765Z,1.55
2018-01-18T06:31:48.781Z,1.58
2018-01-18T06:32:48.749Z,1.51
2018-01-18T06:33:48.743Z,1.47
2018-01-18T06:34:48.735Z,1.44
2018-01-18T06:35:48.727Z,1.60
2018-01-18T06:36:48.721Z,1.55
2018-01-18T06:37:48.713Z,1.55
2018-01-18T06:38:48.707Z,1.54
2018-01-18T06:39:48.736Z,1.42
2018-01-18T06:40:48.691Z,1.42
2018-01-18T06:41:48.721Z,1.43
2018-01-18T06:42:48.680Z,1.54
2018-01-18T06:43:48.670Z,1.44
2018-01-18T06:44:48.666Z,1.47
2018-01-18T06:45:48.654Z,1.62
2018-01-18T06:46:48.654Z,1.55
2018-01-18T06:47:48.641Z,1.54
2018-01-18T06:48:48.633Z,1.55
2018-01-18T06:49:48.629Z,1.58
2018-01-18T06:50:48.621Z,1.58
2018-01-18T06:51:48.613Z,1.57
2018-01-18T06:52:48.605Z,1.55
2018-01-18T06:53:48.599Z,1.62
2018-01-18T06:54:48.592Z,1.64
2018-01-18T06:55:48.582Z,1.64
2018-01-18T06:56:48.577Z,1.68
2018-01-18T06:57:48.572Z,1.75
2018-01-18T06:58:48.562Z,1.72
2018-01-18T06:59:48.553Z,1.71
2018-01-18T07:00:48.547Z,1.76
2018-01-18T07:01:48.542Z,1.62
2018-01-18T07:02:48.533Z,1.73
2018-01-18T07:03:48.727Z,1.65
2018-01-18T07:04:48.518Z,1.71
2018-01-18T07:05:48.512Z,1.62
2018-01-18T07:06:48.505Z,1.69
2018-01-18T07:07:48.495Z,1.68
2018-01-18T07:08:48.490Z,1.71
2018-01-18T07:09:48.484Z,1.64
2018-01-18T07:10:48.475Z,1.71
2018-01-18T07:11:48.467Z,1.69
2018-01-18T07:12:48.461Z,1.73
2018-01-18T07:13:48.453Z,1.69
2018-01-18T07:14:48.446Z,1.68
2018-01-18T07:15:48.439Z,1.68
2018-01-18T07:16:48.432Z,1.68
2018-01-18T07:17:48.424Z,1.61
2018-01-18T07:18:48.479Z,1.79
2018-01-18T07:19:48.415Z,1.64
2018-01-18T07:20:48.406Z,1.64
2018-01-18T07:21:48.394Z,1.68
2018-01-18T07:22:48.387Z,1.69
2018-01-18T07:23:48.380Z,1.65
2018-01-18T07:24:48.373Z,1.72
2018-01-18T07:25:48.366Z,1.75
2018-01-18T07:26:48.357Z,1.65
2018-01-18T07:27:48.350Z,1.65
2018-01-18T07:28:48.345Z,1.73
2018-01-18T07:29:48.337Z,1.78
2018-01-18T07:30:48.328Z,1.82
2018-01-18T07:31:48.324Z,1.73
2018-01-18T07:32:48.316Z,1.87
2018-01-18T07:33:48.308Z,1.79
2018-01-18T07:34:48.300Z,1.76
2018-01-18T07:35:48.295Z,1.85
2018-01-18T07:36:48.286Z,1.80
2018-01-18T07:37:48.280Z,1.79
2018-01-18T07:38:48.272Z,1.76
2018-01-18T07:39:48.264Z,1.76
2018-01-18T07:40:48.256Z,1.78
2018-01-18T07:41:48.248Z,1.80
2018-01-18T07:42:48.244Z,1.80
2018-01-18T07:43:48.233Z,1.76
2018-01-18T07:44:48.226Z,1.78
2018-01-18T07:45:48.221Z,1.75
2018-01-18T07:46:48.235Z,1.82
2018-01-18T07:47:48.211Z,1.79
2018-01-18T07:48:48.198Z,1.78
2018-01-18T07:49:48.192Z,1.80
2018-01-18T07:50:48.184Z,1.73
2018-01-18T07:51:48.181Z,1.78
2018-01-18T07:52:48.169Z,1.75
2018-01-18T07:53:48.165Z,1.73
2018-01-18T07:54:48.155Z,1.72
2018-01-18T07:55:48.147Z,1.76
2018-01-18T07:56:48.142Z,1.76
2018-01-18T07:57:48.134Z,1.78
2018-01-18T07:58:48.127Z,1.79
2018-01-18T07:59:48.133Z,1.87
2018-01-18T08:00:48.115Z,1.90
2018-01-18T08:01:48.112Z,1.82
2018-01-18T08:02:48.100Z,1.79
2018-01-18T08:03:48.093Z,1.80
2018-01-18T08:04:48.090Z,1.73
2018-01-18T08:05:48.081Z,1.79
2018-01-18T08:06:48.072Z,1.75
2018-01-18T08:07:48.064Z,1.72
2018-01-18T08:08:48.058Z,1.64
2018-01-18T08:09:48.050Z,1.73
2018-01-18T08:10:48.043Z,1.79
2018-01-18T08:11:48.043Z,1.75
2018-01-18T08:12:48.032Z,1.75
2018-01-18T08:13:48.021Z,1.76
2018-01-18T08:14:48.014Z,1.79
2018-01-18T08:15:48.005Z,1.85
2018-01-18T08:16:48.001Z,1.90
2018-01-18T08:17:47.997Z,1.90
2018-01-18T08:18:47.986Z,1.93
2018-01-18T08:19:47.979Z,1.91
2018-01-18T08:20:47.970Z,2.02
2018-01-18T08:21:47.966Z,1.99
2018-01-18T08:22:47.959Z,2.08
2018-01-18T08:23:47.951Z,1.97
2018-01-18T08:24:47.942Z,1.94
2018-01-18T08:25:47.934Z,1.87
2018-01-18T08:26:47.928Z,1.89
2018-01-18T08:27:47.926Z,1.90
2018-01-18T08:28:47.918Z,1.83
2018-01-18T08:29:47.907Z,1.89
2018-01-18T08:30:47.902Z,1.89
2018-01-18T08:31:47.895Z,1.89
2018-01-18T08:32:47.887Z,1.87
2018-01-18T08:33:47.878Z,1.91
2018-01-18T08:34:47.872Z,1.85
2018-01-18T08:35:47.865Z,1.90
2018-01-18T08:36:47.862Z,1.91
2018-01-18T08:37:47.852Z,2.02
2018-01-18T08:38:47.847Z,2.04
2018-01-18T08:39:47.837Z,2.08
2018-01-18T08:40:47.830Z,2.04
2018-01-18T08:41:47.824Z,2.02
2018-01-18T08:42:47.818Z,2.04
2018-01-18T08:43:47.815Z,2.08
2018-01-18T08:44:47.804Z,2.06
2018-01-18T08:45:47.794Z,2.08
2018-01-18T08:46:47.794Z,1.98
2018-01-18T08:47:47.787Z,1.99
2018-01-18T08:48:47.774Z,2.06
2018-01-18T08:49:47.769Z,1.98
2018-01-18T08:50:47.765Z,2.08
2018-01-18T08:51:47.755Z,1.94
2018-01-18T08:52:47.748Z,2.12
2018-01-18T08:53:47.749Z,2.06
2018-01-18T08:54:47.733Z,2.12
2018-01-18T08:55:47.725Z,2.19
2018-01-18T08:56:47.724Z,2.22
2018-01-18T08:57:47.713Z,2.26
2018-01-18T08:58:47.711Z,2.19
2018-01-18T08:59:47.698Z,2.19
2018-01-18T09:00:47.699Z,2.19
2018-01-18T09:01:47.686Z,2.12
2018-01-18T09:02:47.682Z,2.20
2018-01-18T09:03:47.679Z,2.19
2018-01-18T09:04:47.681Z,2.15
2018-01-18T09:05:47.658Z,2.12
2018-01-18T09:06:47.655Z,2.04
2018-01-18T09:07:47.645Z,2.04
2018-01-18T09:08:47.643Z,2.09
2018-01-18T09:09:47.637Z,2.04
2018-01-18T09:10:47.626Z,2.16
2018-01-18T09:11:47.627Z,2.17
2018-01-18T09:12:47.622Z,2.22
2018-01-18T09:13:47.617Z,2.33
2018-01-18T09:14:47.600Z,2.33
2018-01-18T09:15:47.593Z,2.22
2018-01-18T09:16:47.585Z,2.34
2018-01-18T09:17:47.581Z,2.16
2018-01-18T09:18:47.571Z,2.23
2018-01-18T09:19:47.564Z,2.27
2018-01-18T09:20:47.563Z,2.28
2018-01-18T09:21:47.554Z,2.26
2018-01-18T09:22:47.556Z,2.22
2018-01-18T09:23:47.540Z,2.16
2018-01-18T09:24:47.534Z,2.13
2018-01-18T09:25:47.542Z,2.13
2018-01-18T09:26:47.521Z,2.22
2018-01-18T09:27:47.608Z,2.22
2018-01-18T09:28:47.503Z,2.22
2018-01-18T09:29:47.499Z,2.23
2018-01-18T09:30:47.494Z,2.26
2018-01-18T09:31:47.491Z,2.30
2018-01-18T09:32:47.478Z,2.28
2018-01-18T09:33:47.488Z,2.23
2018-01-18T09:34:47.467Z,2.33
2018-01-18T09:35:47.458Z,2.33
2018-01-18T09:36:47.455Z,2.35
2018-01-18T09:37:47.448Z,2.33
2018-01-18T09:38:47.437Z,2.31
2018-01-18T09:39:47.431Z,2.44
2018-01-18T09:40:47.453Z,2.53
2018-01-18T09:41:47.417Z,2.55
2018-01-18T09:42:47.412Z,2.58
2018-01-18T09:43:47.411Z,2.61
2018-01-18T09:44:47.403Z,2.69
2018-01-18T09:45:47.393Z,2.55
2018-01-18T09:46:47.388Z,2.52
2018-01-18T09:47:47.418Z,2.56
2018-01-18T09:48:47.374Z,2.56
2018-01-18T09:49:47.368Z,2.61
2018-01-18T09:50:47.372Z,2.76
2018-01-18T09:51:47.354Z,2.64
2018-01-18T09:52:47.347Z,2.74
2018-01-18T09:53:47.340Z,2.63
2018-01-18T09:54:47.337Z,2.58
2018-01-18T09:55:47.410Z,2.63
2018-01-18T09:56:47.330Z,2.56
2018-01-18T09:57:47.317Z,2.56
2018-01-18T09:58:47.308Z,2.55
2018-01-18T09:59:47.308Z,2.64
2018-01-18T10:00:47.296Z,2.69
2018-01-18T10:01:47.327Z,2.73
2018-01-18T10:02:47.283Z,2.82
2018-01-18T10:03:47.282Z,2.76
2018-01-18T10:04:47.274Z,2.71
2018-01-18T10:05:47.265Z,2.79
2018-01-18T10:06:47.258Z,2.71
2018-01-18T10:07:47.250Z,2.79
2018-01-18T10:08:47.246Z,2.70
2018-01-18T10:09:47.256Z,2.74
2018-01-18T10:10:47.234Z,2.79
2018-01-18T10:11:47.225Z,2.98
2018-01-18T10:12:47.693Z,2.87
2018-01-18T10:13:47.214Z,2.81
2018-01-18T10:14:47.208Z,2.91
2018-01-18T10:15:47.222Z,2.85
2018-01-18T10:18:25.361Z,2.69
2018-01-18T10:19:25.840Z,2.64
2018-01-18T10:20:25.204Z,2.64
2018-01-18T10:21:23.872Z,2.71
2018-01-18T10:22:23.844Z,2.74
2018-01-18T10:23:23.761Z,2.85
2018-01-18T10:24:23.756Z,2.84
2018-01-18T10:25:23.753Z,2.89
2018-01-18T10:26:23.745Z,2.92
2018-01-18T10:27:23.734Z,2.87
2018-01-18T10:28:23.731Z,2.95
2018-01-18T10:29:23.722Z,2.91
2018-01-18T10:30:23.725Z,2.89
2018-01-18T10:31:23.712Z,2.82
2018-01-18T10:32:23.703Z,2.87
2018-01-18T10:33:23.736Z,2.97
2018-01-18T10:34:23.697Z,2.89
2018-01-18T10:35:23.688Z,2.91
2018-01-18T10:36:23.685Z,3.05
2018-01-18T10:37:23.699Z,3.05
2018-01-18T10:38:23.689Z,3.05
2018-01-18T10:39:23.687Z,3.06
2018-01-18T10:40:23.658Z,3.25
2018-01-18T10:41:23.830Z,3.25
2018-01-18T10:42:23.721Z,3.24
2018-01-18T10:43:34.356Z,3.24
2018-01-18T10:44:23.642Z,3.23
2018-01-18T10:45:23.626Z,3.27
2018-01-18T10:46:23.621Z,3.27
2018-01-18T10:47:23.614Z,3.25
2018-01-18T10:48:23.604Z,3.23
2018-01-18T10:49:23.861Z,3.09
2018-01-18T10:50:26.389Z,3.07
2018-01-18T10:51:23.590Z,3.09
2018-01-18T10:52:23.672Z,3.03
2018-01-18T10:53:23.579Z,3.03
2018-01-18T10:54:25.421Z,3.06
2018-01-18T10:55:24.745Z,3.21
2018-01-18T10:56:23.663Z,3.27
2018-01-18T10:57:23.752Z,3.25
2018-01-18T10:58:25.413Z,3.30
2018-01-18T10:59:26.388Z,3.39
2018-01-18T11:03:44.058Z,3.54
2018-01-18T11:04:35.766Z,3.42
2018-01-18T11:05:35.690Z,3.54
2018-01-18T11:06:37.391Z,3.61
2018-01-18T11:07:35.664Z,3.58
2018-01-18T11:08:35.641Z,3.62
2018-01-18T11:09:35.634Z,3.60
2018-01-18T11:10:35.633Z,3.76
2018-01-18T11:11:35.625Z,3.78
2018-01-18T11:12:35.629Z,3.78
2018-01-18T11:13:35.609Z,3.85
2018-01-18T11:14:35.610Z,3.90
2018-01-18T11:15:35.604Z,4.03
2018-01-18T11:16:35.658Z,3.88
2018-01-18T11:17:35.598Z,4.04
2018-01-18T11:18:35.589Z,4.18
2018-01-18T11:19:35.577Z,4.10
2018-01-18T11:20:35.570Z,4.12
2018-01-18T11:21:35.565Z,4.18
2018-01-18T11:22:35.559Z,4.21
2018-01-18T11:23:35.556Z,4.21
2018-01-18T11:24:35.562Z,4.44
2018-01-18T11:25:35.545Z,4.64
2018-01-18T11:26:35.537Z,4.62
2018-01-18T11:27:35.548Z,4.50
2018-01-18T11:28:35.527Z,4.65
2018-01-18T11:29:35.522Z,4.59
2018-01-18T11:30:35.515Z,4.62
2018-01-18T11:31:35.521Z,4.62
2018-01-18T11:32:35.520Z,4.65
2018-01-18T11:33:35.498Z,4.70
2018-01-18T11:34:35.495Z,4.67
2018-01-18T11:35:35.503Z,4.86
2018-01-18T11:36:35.483Z,4.79
2018-01-18T11:37:35.479Z,4.69
2018-01-18T11:38:35.474Z,4.70
2018-01-18T11:39:35.467Z,4.64
2018-01-18T11:40:35.462Z,4.69
2018-01-18T11:41:35.478Z,4.54
2018-01-18T11:42:35.453Z,4.46
2018-01-18T11:43:35.447Z,4.52
2018-01-18T11:44:35.442Z,4.65
2018-01-18T11:45:35.470Z,4.65
2018-01-18T11:46:35.431Z,4.65
2018-01-18T11:47:35.429Z,4.79
2018-01-18T11:48:35.440Z,4.76
2018-01-18T11:49:35.415Z,4.76
2018-01-18T11:50:35.433Z,4.75
2018-01-18T11:51:35.441Z,4.75
2018-01-18T11:52:35.403Z,4.58
2018-01-18T11:53:35.409Z,4.80
2018-01-18T11:54:35.391Z,4.83
2018-01-18T11:55:35.391Z,4.77
2018-01-18T11:56:35.381Z,4.99
2018-01-18T11:57:35.377Z,4.98
2018-01-18T11:58:35.369Z,5.09
2018-01-18T11:59:35.369Z,5.14
2018-01-18T12:00:35.379Z,5.13
2018-01-18T12:01:35.355Z,5.07
2018-01-18T12:02:35.352Z,5.12
2018-01-18T12:03:35.347Z,5.22
2018-01-18T12:04:35.351Z,5.10
2018-01-18T12:05:35.357Z,5.14
2018-01-18T12:06:35.343Z,5.27
2018-01-18T12:07:35.327Z,5.45
2018-01-18T12:08:35.322Z,5.31
2018-01-18T12:09:35.313Z,5.25
2018-01-18T12:10:35.365Z,5.32
2018-01-18T12:11:35.308Z,5.45
2018-01-18T12:12:35.353Z,5.50
2018-01-18T12:13:35.301Z,5.50
2018-01-18T12:14:35.297Z,5.55
2018-01-18T12:15:35.292Z,5.49
2018-01-18T12:16:35.284Z,5.67
2018-01-18T12:17:35.279Z,5.57
2018-01-18T12:18:35.273Z,5.74
2018-01-18T12:19:35.270Z,5.68
2018-01-18T12:20:35.263Z,5.64
2018-01-18T12:21:37.248Z,5.59
2018-01-18T12:26:56.832Z,5.78
2018-01-18T12:29:12.162Z,5.70
2018-01-18T12:30:12.148Z,5.77
2018-01-18T12:32:58.632Z,5.82
2018-01-18T12:33:49.671Z,5.86
2018-01-18T12:35:43.709Z,6.03
2018-01-18T12:36:43.550Z,6.11
2018-01-18T12:38:37.994Z,6.21
2018-01-18T12:39:37.900Z,6.18
2018-01-18T12:41:32.371Z,6.19
2018-01-18T12:42:32.250Z,6.21
2018-01-18T12:44:26.642Z,6.10
2018-01-18T12:45:26.630Z,5.95
2018-01-18T12:46:26.598Z,6.09
2018-01-18T12:47:26.652Z,6.11
2018-01-18T12:48:26.587Z,6.07
2018-01-18T12:49:26.599Z,5.96
2018-01-18T12:50:26.581Z,6.00
2018-01-18T12:51:26.570Z,5.92
2018-01-18T12:52:26.592Z,5.92
2018-01-18T12:53:26.567Z,6.11
2018-01-18T12:54:26.562Z,6.07
2018-01-18T12:55:26.555Z,6.00
2018-01-18T12:56:26.549Z,6.03
2018-01-18T12:57:26.639Z,5.93
2018-01-18T12:58:26.549Z,6.01
2018-01-18T12:59:26.538Z,5.85
2018-01-18T13:00:26.537Z,5.83
2018-01-18T13:01:26.531Z,5.88
2018-01-18T13:02:26.528Z,5.95
2018-01-18T13:03:26.532Z,6.00
2018-01-18T13:04:26.515Z,6.01
2018-01-18T13:05:26.513Z,6.01
2018-01-18T13:06:26.511Z,6.00
2018-01-18T13:07:26.539Z,6.03
2018-01-18T13:08:26.534Z,6.11
2018-01-18T13:09:26.689Z,5.88
2018-01-18T13:10:26.498Z,5.89
2018-01-18T13:11:26.488Z,5.88
2018-01-18T13:12:26.487Z,5.89
2018-01-18T13:13:26.480Z,5.83
2018-01-18T13:14:26.476Z,6.00
2018-01-18T13:15:26.475Z,5.92
2018-01-18T13:16:26.466Z,6.07
2018-01-18T13:17:26.488Z,6.09
2018-01-18T13:18:26.513Z,6.03
2018-01-18T13:19:27.175Z,6.00
2018-01-18T13:20:27.236Z,6.10
2018-01-18T13:21:26.449Z,6.16
2018-01-18T13:22:26.485Z,6.11
2018-01-18T13:23:27.176Z,6.07
2018-01-18T13:24:26.442Z,6.10
2018-01-18T13:25:26.462Z,6.04
2018-01-18T13:26:26.620Z,6.09
2018-01-18T13:27:26.515Z,6.13
2018-01-18T13:28:26.630Z,6.21
2018-01-18T13:29:26.672Z,6.19
2018-01-18T13:30:26.542Z,6.26
2018-01-18T13:31:26.575Z,6.35
2018-01-18T13:32:26.635Z,6.28
2018-01-18T13:33:27.447Z,6.22
2018-01-18T13:34:26.527Z,6.22
2018-01-18T13:35:26.493Z,6.16
2018-01-18T13:36:26.425Z,6.16
2018-01-18T13:37:26.699Z,6.11
2018-01-18T13:38:26.389Z,6.21
2018-01-18T13:39:26.442Z,6.10
2018-01-18T13:40:26.564Z,6.09
2018-01-18T13:41:26.368Z,5.96
2018-01-18T13:42:26.401Z,6.09
2018-01-18T13:43:26.446Z,5.95
2018-01-18T13:44:26.355Z,5.98
2018-01-18T13:45:26.374Z,6.03
2018-01-18T13:46:26.347Z,5.92
2018-01-18T13:47:26.339Z,5.74
2018-01-18T13:48:26.335Z,5.81
2018-01-18T13:49:26.336Z,5.73
2018-01-18T13:50:26.330Z,5.71
2018-01-18T13:51:26.327Z,5.74
2018-01-18T13:52:26.321Z,5.75
2018-01-18T13:53:26.323Z,5.73
2018-01-18T13:54:26.337Z,5.77
2018-01-18T13:55:26.336Z,5.82
2018-01-18T13:56:26.304Z,5.74
2018-01-18T13:57:26.301Z,5.75
2018-01-18T13:58:28.194Z,5.60
2018-01-18T13:59:26.290Z,5.59
2018-01-18T14:00:26.287Z,5.45
2018-01-18T14:01:26.283Z,5.46
2018-01-18T14:02:26.279Z,5.38
2018-01-18T14:03:26.279Z,5.32
2018-01-18T14:04:26.282Z,5.34
2018-01-18T14:05:26.267Z,5.30
2018-01-18T14:06:26.270Z,5.35
2018-01-18T14:07:26.402Z,5.34
2018-01-18T14:08:26.253Z,5.46
2018-01-18T14:09:26.251Z,5.38
2018-01-18T14:10:26.253Z,5.35